sensor_id;sensor_type;location;lat;lon;timestamp;pressure;altitude;pressure_sealevel;temperature;humidity
72525;BME280;60547;48.502;8.996;2022-08-19T00:01:21;97488.66;;;19.88;80.30
72525;BME280;60547;48.502;8.996;2022-08-19T00:03:47;97493.53;;;19.82;81.28
72525;BME280;60547;48.502;8.996;2022-08-19T00:06:13;97501.72;;;19.80;81.58
72525;BME280;60547;48.502;8.996;2022-08-19T00:08:39;97485.53;;;19.69;81.37
72525;BME280;60547;48.502;8.996;2022-08-19T00:11:05;97491.19;;;19.75;82.29
72525;BME280;60547;48.502;8.996;2022-08-19T00:13:30;97496.56;;;19.67;82.63
72525;BME280;60547;48.502;8.996;2022-08-19T00:15:56;97487.81;;;19.59;82.80
72525;BME280;60547;48.502;8.996;2022-08-19T00:18:24;97477.00;;;19.52;82.68
72525;BME280;60547;48.502;8.996;2022-08-19T00:20:49;97479.31;;;19.54;83.33
72525;BME280;60547;48.502;8.996;2022-08-19T00:23:14;97461.81;;;19.50;83.42
72525;BME280;60547;48.502;8.996;2022-08-19T00:25:41;97465.94;;;19.49;83.74
72525;BME280;60547;48.502;8.996;2022-08-19T00:28:06;97471.88;;;19.56;83.94
72525;BME280;60547;48.502;8.996;2022-08-19T00:30:32;97473.63;;;19.48;83.73
72525;BME280;60547;48.502;8.996;2022-08-19T00:32:57;97464.38;;;19.42;83.96
72525;BME280;60547;48.502;8.996;2022-08-19T00:35:23;97458.41;;;19.29;83.88
72525;BME280;60547;48.502;8.996;2022-08-19T00:37:49;97472.00;;;19.30;83.15
72525;BME280;60547;48.502;8.996;2022-08-19T00:40:16;97475.06;;;19.27;83.35
72525;BME280;60547;48.502;8.996;2022-08-19T00:42:43;97474.50;;;19.17;83.52
72525;BME280;60547;48.502;8.996;2022-08-19T00:45:29;97477.03;;;19.10;83.84
72525;BME280;60547;48.502;8.996;2022-08-19T00:47:56;97491.69;;;19.14;84.07
72525;BME280;60547;48.502;8.996;2022-08-19T00:50:22;97479.63;;;19.13;83.71
72525;BME280;60547;48.502;8.996;2022-08-19T00:52:50;97493.75;;;19.19;83.76
72525;BME280;60547;48.502;8.996;2022-08-19T00:55:19;97496.84;;;19.21;84.06
72525;BME280;60547;48.502;8.996;2022-08-19T00:57:48;97487.03;;;19.11;85.38
72525;BME280;60547;48.502;8.996;2022-08-19T01:00:18;97479.84;;;19.04;85.04
72525;BME280;60547;48.502;8.996;2022-08-19T01:02:45;97478.78;;;19.01;85.64
72525;BME280;60547;48.502;8.996;2022-08-19T01:05:14;97482.88;;;19.00;85.49
72525;BME280;60547;48.502;8.996;2022-08-19T01:07:41;97479.00;;;18.92;86.31
72525;BME280;60547;48.502;8.996;2022-08-19T01:10:13;97479.53;;;18.96;86.54
72525;BME280;60547;48.502;8.996;2022-08-19T01:12:40;97482.84;;;18.95;86.77
72525;BME280;60547;48.502;8.996;2022-08-19T01:15:09;97475.09;;;18.84;87.81
72525;BME280;60547;48.502;8.996;2022-08-19T01:17:36;97478.66;;;18.79;87.27
72525;BME280;60547;48.502;8.996;2022-08-19T01:20:04;97481.75;;;18.81;87.13
72525;BME280;60547;48.502;8.996;2022-08-19T01:22:36;97486.34;;;18.79;86.75
72525;BME280;60547;48.502;8.996;2022-08-19T01:25:05;97483.75;;;18.75;87.09
72525;BME280;60547;48.502;8.996;2022-08-19T01:27:41;97486.84;;;18.77;87.00
72525;BME280;60547;48.502;8.996;2022-08-19T01:30:12;97484.75;;;18.72;87.51
72525;BME280;60547;48.502;8.996;2022-08-19T01:32:38;97484.22;;;18.68;87.34
72525;BME280;60547;48.502;8.996;2022-08-19T01:35:04;97483.22;;;18.71;87.32
72525;BME280;60547;48.502;8.996;2022-08-19T01:37:30;97488.53;;;18.63;87.81
72525;BME280;60547;48.502;8.996;2022-08-19T01:39:55;97479.81;;;18.61;88.59
72525;BME280;60547;48.502;8.996;2022-08-19T01:42:21;97474.47;;;18.69;87.19
72525;BME280;60547;48.502;8.996;2022-08-19T01:44:47;97479.63;;;18.70;87.01
72525;BME280;60547;48.502;8.996;2022-08-19T01:47:13;97474.22;;;18.67;87.31
72525;BME280;60547;48.502;8.996;2022-08-19T01:49:38;97476.03;;;18.70;87.48
72525;BME280;60547;48.502;8.996;2022-08-19T01:52:05;97479.59;;;18.65;87.87
72525;BME280;60547;48.502;8.996;2022-08-19T01:54:31;97487.53;;;18.66;87.96
72525;BME280;60547;48.502;8.996;2022-08-19T01:57:03;97479.31;;;18.63;87.95
72525;BME280;60547;48.502;8.996;2022-08-19T01:59:30;97471.56;;;18.58;88.06
72525;BME280;60547;48.502;8.996;2022-08-19T02:01:57;97481.34;;;18.62;88.16
72525;BME280;60547;48.502;8.996;2022-08-19T02:04:22;97463.34;;;18.54;87.86
72525;BME280;60547;48.502;8.996;2022-08-19T02:06:48;97462.84;;;18.56;88.60
72525;BME280;60547;48.502;8.996;2022-08-19T02:09:14;97464.66;;;18.59;88.49
72525;BME280;60547;48.502;8.996;2022-08-19T02:11:41;97471.00;;;18.54;89.02
72525;BME280;60547;48.502;8.996;2022-08-19T02:14:07;97477.69;;;18.56;88.56
72525;BME280;60547;48.502;8.996;2022-08-19T02:16:33;97474.59;;;18.54;88.33
72525;BME280;60547;48.502;8.996;2022-08-19T02:18:59;97479.47;;;18.54;88.92
72525;BME280;60547;48.502;8.996;2022-08-19T02:21:26;97472.84;;;18.57;88.71
72525;BME280;60547;48.502;8.996;2022-08-19T02:23:52;97474.59;;;18.54;88.83
72525;BME280;60547;48.502;8.996;2022-08-19T02:26:18;97462.78;;;18.50;88.16
72525;BME280;60547;48.502;8.996;2022-08-19T02:28:44;97466.66;;;18.53;88.28
72525;BME280;60547;48.502;8.996;2022-08-19T02:31:11;97462.84;;;18.56;87.87
72525;BME280;60547;48.502;8.996;2022-08-19T02:33:37;97452.03;;;18.49;88.38
72525;BME280;60547;48.502;8.996;2022-08-19T02:36:07;97455.84;;;18.46;88.15
72525;BME280;60547;48.502;8.996;2022-08-19T02:38:32;97453.25;;;18.42;88.17
72525;BME280;60547;48.502;8.996;2022-08-19T02:41:01;97441.66;;;18.34;88.22
72525;BME280;60547;48.502;8.996;2022-08-19T02:43:29;97441.44;;;18.38;88.00
72525;BME280;60547;48.502;8.996;2022-08-19T02:45:55;97442.94;;;18.33;88.35
72525;BME280;60547;48.502;8.996;2022-08-19T02:48:23;97439.06;;;18.31;88.12
72525;BME280;60547;48.502;8.996;2022-08-19T02:50:50;97449.56;;;18.30;88.47
72525;BME280;60547;48.502;8.996;2022-08-19T02:53:26;97449.81;;;18.27;87.99
72525;BME280;60547;48.502;8.996;2022-08-19T02:55:52;97454.66;;;18.26;88.19
72525;BME280;60547;48.502;8.996;2022-08-19T02:58:19;97464.69;;;18.33;88.26
72525;BME280;60547;48.502;8.996;2022-08-19T03:00:48;97468.78;;;18.32;87.87
72525;BME280;60547;48.502;8.996;2022-08-19T03:03:14;97465.97;;;18.32;88.49
72525;BME280;60547;48.502;8.996;2022-08-19T03:05:41;97462.94;;;18.35;88.65
72525;BME280;60547;48.502;8.996;2022-08-19T03:08:07;97460.28;;;18.26;88.93
72525;BME280;60547;48.502;8.996;2022-08-19T03:10:33;97455.13;;;18.19;88.26
72525;BME280;60547;48.502;8.996;2022-08-19T03:12:58;97450.03;;;18.23;88.08
72525;BME280;60547;48.502;8.996;2022-08-19T03:15:24;97462.06;;;18.24;88.24
72525;BME280;60547;48.502;8.996;2022-08-19T03:17:49;97465.88;;;18.21;88.34
72525;BME280;60547;48.502;8.996;2022-08-19T03:20:15;97466.16;;;18.23;88.34
72525;BME280;60547;48.502;8.996;2022-08-19T03:22:40;97453.84;;;18.20;88.53
72525;BME280;60547;48.502;8.996;2022-08-19T03:25:06;97448.22;;;18.20;89.00
72525;BME280;60547;48.502;8.996;2022-08-19T03:27:31;97443.53;;;18.12;89.10
72525;BME280;60547;48.502;8.996;2022-08-19T03:29:56;97440.88;;;18.02;89.22
72525;BME280;60547;48.502;8.996;2022-08-19T03:32:22;97453.75;;;18.09;89.39
72525;BME280;60547;48.502;8.996;2022-08-19T03:34:47;97455.84;;;18.14;88.86
72525;BME280;60547;48.502;8.996;2022-08-19T03:37:13;97445.28;;;18.09;88.71
72525;BME280;60547;48.502;8.996;2022-08-19T03:39:39;97442.44;;;18.03;88.73
72525;BME280;60547;48.502;8.996;2022-08-19T03:42:05;97461.19;;;18.12;88.34
72525;BME280;60547;48.502;8.996;2022-08-19T03:44:31;97451.16;;;18.05;88.84
72525;BME280;60547;48.502;8.996;2022-08-19T03:47:01;97465.56;;;18.13;88.74
72525;BME280;60547;48.502;8.996;2022-08-19T03:49:29;97464.84;;;18.18;88.51
72525;BME280;60547;48.502;8.996;2022-08-19T03:51:56;97477.91;;;18.21;88.37
72525;BME280;60547;48.502;8.996;2022-08-19T03:54:24;97484.56;;;18.18;88.65
72525;BME280;60547;48.502;8.996;2022-08-19T03:56:52;97488.13;;;18.19;88.38
72525;BME280;60547;48.502;8.996;2022-08-19T03:59:22;97492.72;;;18.16;88.53
72525;BME280;60547;48.502;8.996;2022-08-19T04:01:50;97480.91;;;18.12;89.01
72525;BME280;60547;48.502;8.996;2022-08-19T04:04:15;97480.69;;;18.16;88.92
72525;BME280;60547;48.502;8.996;2022-08-19T04:06:42;97474.50;;;18.12;89.39
72525;BME280;60547;48.502;8.996;2022-08-19T04:09:09;97465.19;;;18.00;89.27
72525;BME280;60547;48.502;8.996;2022-08-19T04:11:47;97471.63;;;18.06;89.31
72525;BME280;60547;48.502;8.996;2022-08-19T04:14:19;97478.25;;;18.03;89.15
72525;BME280;60547;48.502;8.996;2022-08-19T04:16:46;97479.81;;;18.04;88.98
72525;BME280;60547;48.502;8.996;2022-08-19T04:19:12;97475.19;;;18.01;89.22
72525;BME280;60547;48.502;8.996;2022-08-19T04:21:38;97467.78;;;18.03;89.33
72525;BME280;60547;48.502;8.996;2022-08-19T04:24:05;97466.72;;;18.01;89.47
72525;BME280;60547;48.502;8.996;2022-08-19T04:26:33;97471.38;;;18.04;89.36
72525;BME280;60547;48.502;8.996;2022-08-19T04:29:02;97460.53;;;17.97;89.14
72525;BME280;60547;48.502;8.996;2022-08-19T04:31:30;97463.63;;;17.99;89.49
72525;BME280;60547;48.502;8.996;2022-08-19T04:33:59;97468.28;;;18.02;89.34
72525;BME280;60547;48.502;8.996;2022-08-19T04:36:27;97461.09;;;18.01;88.77
72525;BME280;60547;48.502;8.996;2022-08-19T04:38:55;97464.41;;;17.99;88.99
72525;BME280;60547;48.502;8.996;2022-08-19T04:41:21;97474.94;;;18.04;88.93
72525;BME280;60547;48.502;8.996;2022-08-19T04:44:05;97475.66;;;17.99;88.64
72525;BME280;60547;48.502;8.996;2022-08-19T04:46:31;97477.22;;;18.00;88.93
72525;BME280;60547;48.502;8.996;2022-08-19T04:48:58;97478.97;;;17.98;89.09
72525;BME280;60547;48.502;8.996;2022-08-19T04:51:23;97480.31;;;18.02;88.95
72525;BME280;60547;48.502;8.996;2022-08-19T04:53:49;97475.66;;;17.99;89.48
72525;BME280;60547;48.502;8.996;2022-08-19T04:56:17;97484.94;;;18.05;89.15
72525;BME280;60547;48.502;8.996;2022-08-19T04:58:44;97488.47;;;18.00;88.96
72525;BME280;60547;48.502;8.996;2022-08-19T05:01:14;97487.50;;;18.03;89.55
72525;BME280;60547;48.502;8.996;2022-08-19T05:03:42;97497.97;;;18.03;89.45
72525;BME280;60547;48.502;8.996;2022-08-19T05:06:11;97508.25;;;18.06;89.16
72525;BME280;60547;48.502;8.996;2022-08-19T05:08:39;97513.09;;;18.05;89.33
72525;BME280;60547;48.502;8.996;2022-08-19T05:11:16;97506.91;;;18.01;89.91
72525;BME280;60547;48.502;8.996;2022-08-19T05:13:44;97516.97;;;18.08;89.37
72525;BME280;60547;48.502;8.996;2022-08-19T05:16:12;97531.34;;;18.10;89.77
72525;BME280;60547;48.502;8.996;2022-08-19T05:18:39;97538.50;;;18.11;89.70
72525;BME280;60547;48.502;8.996;2022-08-19T05:21:25;97546.19;;;18.11;90.10
72525;BME280;60547;48.502;8.996;2022-08-19T05:24:10;97565.19;;;18.16;89.71
72525;BME280;60547;48.502;8.996;2022-08-19T05:26:37;97564.69;;;18.17;89.37
72525;BME280;60547;48.502;8.996;2022-08-19T05:29:04;97563.13;;;18.16;89.43
72525;BME280;60547;48.502;8.996;2022-08-19T05:31:31;97564.97;;;18.19;89.35
72525;BME280;60547;48.502;8.996;2022-08-19T05:33:57;97565.47;;;18.18;89.03
72525;BME280;60547;48.502;8.996;2022-08-19T05:36:27;97564.91;;;18.14;89.70
72525;BME280;60547;48.502;8.996;2022-08-19T05:38:54;97569.28;;;18.15;89.67
72525;BME280;60547;48.502;8.996;2022-08-19T05:41:22;97572.84;;;18.15;89.65
72525;BME280;60547;48.502;8.996;2022-08-19T05:43:58;97574.69;;;18.18;89.02
72525;BME280;60547;48.502;8.996;2022-08-19T05:46:26;97563.03;;;18.05;89.52
72525;BME280;60547;48.502;8.996;2022-08-19T05:48:51;97574.13;;;18.14;89.40
72525;BME280;60547;48.502;8.996;2022-08-19T05:51:16;97567.94;;;18.10;89.86
72525;BME280;60547;48.502;8.996;2022-08-19T05:53:42;97567.94;;;18.10;89.93
72525;BME280;60547;48.502;8.996;2022-08-19T05:56:15;97570.75;;;18.10;90.03
72525;BME280;60547;48.502;8.996;2022-08-19T05:58:42;97569.75;;;18.13;89.59
72525;BME280;60547;48.502;8.996;2022-08-19T06:01:15;97561.59;;;18.15;89.88
72525;BME280;60547;48.502;8.996;2022-08-19T06:03:41;97564.69;;;18.17;89.64
72525;BME280;60547;48.502;8.996;2022-08-19T06:06:07;97571.88;;;18.18;90.24
72525;BME280;60547;48.502;8.996;2022-08-19T06:08:35;97578.28;;;18.19;89.81
72525;BME280;60547;48.502;8.996;2022-08-19T06:11:20;97569.31;;;18.20;89.82
72525;BME280;60547;48.502;8.996;2022-08-19T06:13:47;97566.50;;;18.20;90.24
72525;BME280;60547;48.502;8.996;2022-08-19T06:16:16;97577.06;;;18.25;89.63
72525;BME280;60547;48.502;8.996;2022-08-19T06:18:48;97567.34;;;18.26;89.76
72525;BME280;60547;48.502;8.996;2022-08-19T06:21:17;97579.59;;;18.23;90.38
72525;BME280;60547;48.502;8.996;2022-08-19T06:23:43;97580.44;;;18.29;90.08
72525;BME280;60547;48.502;8.996;2022-08-19T06:26:12;97569.38;;;18.26;90.56
72525;BME280;60547;48.502;8.996;2022-08-19T06:28:37;97575.06;;;18.31;89.62
72525;BME280;60547;48.502;8.996;2022-08-19T06:31:07;97574.09;;;18.34;89.93
72525;BME280;60547;48.502;8.996;2022-08-19T06:33:33;97571.25;;;18.34;90.05
72525;BME280;60547;48.502;8.996;2022-08-19T06:35:59;97571.25;;;18.34;90.29
72525;BME280;60547;48.502;8.996;2022-08-19T06:38:24;97576.41;;;18.36;90.35
72525;BME280;60547;48.502;8.996;2022-08-19T06:40:49;97570.28;;;18.37;90.19
72525;BME280;60547;48.502;8.996;2022-08-19T06:43:15;97579.28;;;18.42;90.15
72525;BME280;60547;48.502;8.996;2022-08-19T06:45:41;97571.09;;;18.44;90.34
72525;BME280;60547;48.502;8.996;2022-08-19T06:48:06;97582.38;;;18.44;90.32
72525;BME280;60547;48.502;8.996;2022-08-19T06:50:32;97584.69;;;18.45;90.25
72525;BME280;60547;48.502;8.996;2022-08-19T06:52:57;97592.38;;;18.45;90.38
72525;BME280;60547;48.502;8.996;2022-08-19T06:55:23;97585.19;;;18.44;90.11
72525;BME280;60547;48.502;8.996;2022-08-19T06:57:48;97592.41;;;18.50;90.33
72525;BME280;60547;48.502;8.996;2022-08-19T07:00:15;97586.22;;;18.46;90.16
72525;BME280;60547;48.502;8.996;2022-08-19T07:02:42;97592.91;;;18.49;90.45
72525;BME280;60547;48.502;8.996;2022-08-19T07:05:08;97592.69;;;18.52;90.53
72525;BME280;60547;48.502;8.996;2022-08-19T07:07:34;97586.56;;;18.54;90.26
72525;BME280;60547;48.502;8.996;2022-08-19T07:10:00;97597.13;;;18.59;90.23
72525;BME280;60547;48.502;8.996;2022-08-19T07:12:27;97590.97;;;18.60;90.04
72525;BME280;60547;48.502;8.996;2022-08-19T07:14:53;97590.78;;;18.64;89.80
72525;BME280;60547;48.502;8.996;2022-08-19T07:17:18;97592.88;;;18.69;89.10
72525;BME280;60547;48.502;8.996;2022-08-19T07:19:45;97598.56;;;18.75;88.65
72525;BME280;60547;48.502;8.996;2022-08-19T07:22:10;97590.94;;;18.81;88.05
72525;BME280;60547;48.502;8.996;2022-08-19T07:24:37;97591.75;;;18.87;87.71
72525;BME280;60547;48.502;8.996;2022-08-19T07:27:05;97594.63;;;18.92;87.90
72525;BME280;60547;48.502;8.996;2022-08-19T07:29:33;97589.53;;;18.96;87.66
72525;BME280;60547;48.502;8.996;2022-08-19T07:32:00;97594.94;;;19.00;86.92
72525;BME280;60547;48.502;8.996;2022-08-19T07:34:28;97599.03;;;18.99;86.92
72525;BME280;60547;48.502;8.996;2022-08-19T07:36:54;97590.53;;;18.93;86.87
72525;BME280;60547;48.502;8.996;2022-08-19T07:39:23;97585.09;;;18.90;86.74
72525;BME280;60547;48.502;8.996;2022-08-19T07:41:48;97593.53;;;18.84;87.32
72525;BME280;60547;48.502;8.996;2022-08-19T07:44:16;97583.69;;;18.74;86.09
72525;BME280;60547;48.502;8.996;2022-08-19T07:46:45;97589.44;;;18.85;86.54
72525;BME280;60547;48.502;8.996;2022-08-19T07:49:12;97579.69;;;18.86;86.19
72525;BME280;60547;48.502;8.996;2022-08-19T07:51:44;97581.78;;;18.91;86.09
72525;BME280;60547;48.502;8.996;2022-08-19T07:54:10;97592.16;;;19.06;85.84
72525;BME280;60547;48.502;8.996;2022-08-19T07:56:36;97584.50;;;19.12;84.56
72525;BME280;60547;48.502;8.996;2022-08-19T07:59:02;97580.91;;;19.11;85.22
72525;BME280;60547;48.502;8.996;2022-08-19T08:01:28;97589.13;;;19.15;85.18
72525;BME280;60547;48.502;8.996;2022-08-19T08:03:55;97584.50;;;19.12;84.33
72525;BME280;60547;48.502;8.996;2022-08-19T08:06:39;97586.59;;;19.17;83.49
72525;BME280;60547;48.502;8.996;2022-08-19T08:09:27;97593.78;;;19.18;84.41
72525;BME280;60547;48.502;8.996;2022-08-19T08:12:03;97601.69;;;19.14;84.70
72525;BME280;60547;48.502;8.996;2022-08-19T08:14:33;97598.59;;;19.12;84.14
72525;BME280;60547;48.502;8.996;2022-08-19T08:17:00;97598.34;;;19.10;85.22
72525;BME280;60547;48.502;8.996;2022-08-19T08:19:27;97597.06;;;19.11;85.67
72525;BME280;60547;48.502;8.996;2022-08-19T08:21:55;97601.94;;;19.10;85.61
72525;BME280;60547;48.502;8.996;2022-08-19T08:24:21;97597.78;;;19.06;86.51
72525;BME280;60547;48.502;8.996;2022-08-19T08:26:46;97590.06;;;19.00;85.44
72525;BME280;60547;48.502;8.996;2022-08-19T08:29:13;97600.34;;;19.03;86.72
72525;BME280;60547;48.502;8.996;2022-08-19T08:31:40;97600.56;;;19.00;86.43
72525;BME280;60547;48.502;8.996;2022-08-19T08:34:06;97595.16;;;18.96;85.86
72525;BME280;60547;48.502;8.996;2022-08-19T08:36:36;97601.03;;;18.93;85.29
72525;BME280;60547;48.502;8.996;2022-08-19T08:39:08;97608.44;;;18.90;86.00
72525;BME280;60547;48.502;8.996;2022-08-19T08:45:02;97605.91;;;18.92;87.35
72525;BME280;60547;48.502;8.996;2022-08-19T08:47:03;97599.25;;;18.95;87.10
72525;BME280;60547;48.502;8.996;2022-08-19T08:49:32;97612.41;;;19.04;86.58
72525;BME280;60547;48.502;8.996;2022-08-19T08:52:06;97610.84;;;19.03;86.87
72525;BME280;60547;48.502;8.996;2022-08-19T08:54:36;97606.44;;;18.96;87.36
72525;BME280;60547;48.502;8.996;2022-08-19T08:57:08;97602.06;;;18.95;87.79
72525;BME280;60547;48.502;8.996;2022-08-19T08:59:40;97612.84;;;18.97;87.74
72525;BME280;60547;48.502;8.996;2022-08-19T09:02:07;97607.72;;;18.95;88.14
72525;BME280;60547;48.502;8.996;2022-08-19T09:04:36;97606.16;;;18.94;88.69
72525;BME280;60547;48.502;8.996;2022-08-19T09:09:42;97615.66;;;18.97;88.43
72525;BME280;60547;48.502;8.996;2022-08-19T09:12:18;97621.31;;;18.97;88.71
72525;BME280;60547;48.502;8.996;2022-08-19T09:14:49;97613.41;;;19.01;88.63
72525;BME280;60547;48.502;8.996;2022-08-19T09:17:18;97613.34;;;18.95;87.74
72525;BME280;60547;48.502;8.996;2022-08-19T09:19:53;97622.34;;;18.99;88.21
72525;BME280;60547;48.502;8.996;2022-08-19T09:22:19;97622.63;;;19.01;88.54
72525;BME280;60547;48.502;8.996;2022-08-19T09:24:48;97623.09;;;18.94;88.44
72525;BME280;60547;48.502;8.996;2022-08-19T09:27:14;97626.13;;;18.91;90.13
72525;BME280;60547;48.502;8.996;2022-08-19T09:29:40;97623.09;;;18.94;89.84
72525;BME280;60547;48.502;8.996;2022-08-19T09:32:05;97621.28;;;18.91;89.34
72525;BME280;60547;48.502;8.996;2022-08-19T09:34:32;97619.72;;;18.90;89.66
72525;BME280;60547;48.502;8.996;2022-08-19T09:36:58;97623.34;;;18.96;89.71
72525;BME280;60547;48.502;8.996;2022-08-19T09:39:25;97632.63;;;19.02;90.10
72525;BME280;60547;48.502;8.996;2022-08-19T09:41:50;97616.16;;;18.95;89.12
72525;BME280;60547;48.502;8.996;2022-08-19T09:44:16;97626.22;;;19.02;90.02
72525;BME280;60547;48.502;8.996;2022-08-19T09:46:42;97642.22;;;18.85;89.71
72525;BME280;60547;48.502;8.996;2022-08-19T09:49:07;97635.63;;;18.93;88.27
72525;BME280;60547;48.502;8.996;2022-08-19T09:51:33;97640.72;;;18.89;88.79
72525;BME280;60547;48.502;8.996;2022-08-19T09:54:01;97637.47;;;18.96;89.54
72525;BME280;60547;48.502;8.996;2022-08-19T09:56:28;97640.81;;;19.00;89.99
72525;BME280;60547;48.502;8.996;2022-08-19T09:58:54;97644.41;;;19.01;90.04
72525;BME280;60547;48.502;8.996;2022-08-19T10:01:25;97640.09;;;19.06;89.79
72525;BME280;60547;48.502;8.996;2022-08-19T10:03:53;97642.69;;;19.09;90.22
72525;BME280;60547;48.502;8.996;2022-08-19T10:06:23;97647.25;;;19.01;90.13
72525;BME280;60547;48.502;8.996;2022-08-19T10:08:49;97652.94;;;19.07;89.23
72525;BME280;60547;48.502;8.996;2022-08-19T10:11:18;97651.78;;;18.93;89.00
72525;BME280;60547;48.502;8.996;2022-08-19T10:13:44;97659.19;;;18.90;89.87
72525;BME280;60547;48.502;8.996;2022-08-19T10:16:15;97646.91;;;18.93;90.39
72525;BME280;60547;48.502;8.996;2022-08-19T10:18:41;97666.38;;;18.91;90.66
72525;BME280;60547;48.502;8.996;2022-08-19T10:21:16;97659.47;;;18.92;90.46
72525;BME280;60547;48.502;8.996;2022-08-19T10:23:44;97662.84;;;18.96;91.12
72525;BME280;60547;48.502;8.996;2022-08-19T10:26:13;97658.19;;;18.93;90.78
72525;BME280;60547;48.502;8.996;2022-08-19T10:28:39;97659.53;;;18.98;90.58
72525;BME280;60547;48.502;8.996;2022-08-19T10:31:13;97656.19;;;18.99;91.00
72525;BME280;60547;48.502;8.996;2022-08-19T10:33:40;97649.00;;;18.98;91.23
72525;BME280;60547;48.502;8.996;2022-08-19T10:36:11;97653.09;;;18.97;91.13
72525;BME280;60547;48.502;8.996;2022-08-19T10:38:40;97645.38;;;18.92;91.54
72525;BME280;60547;48.502;8.996;2022-08-19T10:41:17;97652.56;;;18.93;91.25
72525;BME280;60547;48.502;8.996;2022-08-19T10:43:44;97657.75;;;19.00;91.47
72525;BME280;60547;48.502;8.996;2022-08-19T10:46:13;97653.94;;;19.03;91.20
72525;BME280;60547;48.502;8.996;2022-08-19T10:48:40;97657.28;;;19.08;91.06
72525;BME280;60547;48.502;8.996;2022-08-19T10:51:06;97642.16;;;19.05;91.31
72525;BME280;60547;48.502;8.996;2022-08-19T10:53:50;97659.06;;;19.05;91.47
72525;BME280;60547;48.502;8.996;2022-08-19T10:56:18;97651.66;;;19.08;91.03
72525;BME280;60547;48.502;8.996;2022-08-19T10:59:03;97654.75;;;19.10;91.11
72525;BME280;60547;48.502;8.996;2022-08-19T11:01:30;97654.78;;;19.15;90.71
72525;BME280;60547;48.502;8.996;2022-08-19T11:03:59;97658.38;;;19.16;90.55
72525;BME280;60547;48.502;8.996;2022-08-19T11:06:24;97640.88;;;19.06;90.47
72525;BME280;60547;48.502;8.996;2022-08-19T11:08:54;97646.34;;;19.15;90.21
72525;BME280;60547;48.502;8.996;2022-08-19T11:11:20;97651.25;;;19.20;90.34
72525;BME280;60547;48.502;8.996;2022-08-19T11:13:48;97648.16;;;19.18;91.18
72525;BME280;60547;48.502;8.996;2022-08-19T11:16:20;97652.28;;;19.23;90.87
72525;BME280;60547;48.502;8.996;2022-08-19T11:18:52;97653.59;;;19.27;91.33
72525;BME280;60547;48.502;8.996;2022-08-19T11:21:22;97652.28;;;19.23;90.75
72525;BME280;60547;48.502;8.996;2022-08-19T11:23:50;97648.75;;;19.28;90.51
72525;BME280;60547;48.502;8.996;2022-08-19T11:26:17;97651.00;;;19.24;89.40
72525;BME280;60547;48.502;8.996;2022-08-19T11:28:43;97658.44;;;19.21;90.54
72525;BME280;60547;48.502;8.996;2022-08-19T11:31:15;97651.75;;;19.19;92.01
72525;BME280;60547;48.502;8.996;2022-08-19T11:33:41;97654.09;;;19.26;91.65
72525;BME280;60547;48.502;8.996;2022-08-19T11:36:07;97657.47;;;19.30;92.58
72525;BME280;60547;48.502;8.996;2022-08-19T11:38:34;97654.66;;;19.30;92.34
72525;BME280;60547;48.502;8.996;2022-08-19T11:41:03;97660.34;;;19.35;91.66
72525;BME280;60547;48.502;8.996;2022-08-19T11:43:29;97646.47;;;19.32;92.37
72525;BME280;60547;48.502;8.996;2022-08-19T11:45:55;97653.88;;;19.29;91.59
72525;BME280;60547;48.502;8.996;2022-08-19T11:48:21;97650.28;;;19.29;92.17
72525;BME280;60547;48.502;8.996;2022-08-19T11:50:48;97657.72;;;19.26;92.09
72525;BME280;60547;48.502;8.996;2022-08-19T11:53:14;97654.59;;;19.24;91.33
72525;BME280;60547;48.502;8.996;2022-08-19T11:55:40;97656.94;;;19.26;91.53
72525;BME280;60547;48.502;8.996;2022-08-19T11:58:06;97653.38;;;19.31;90.89
72525;BME280;60547;48.502;8.996;2022-08-19T12:00:34;97648.50;;;19.31;92.72
72525;BME280;60547;48.502;8.996;2022-08-19T12:03:01;97649.00;;;19.30;92.54
72525;BME280;60547;48.502;8.996;2022-08-19T12:05:26;97654.06;;;19.20;93.08
72525;BME280;60547;48.502;8.996;2022-08-19T12:07:51;97648.75;;;19.28;92.20
72525;BME280;60547;48.502;8.996;2022-08-19T12:10:17;97653.09;;;19.29;92.44
72525;BME280;60547;48.502;8.996;2022-08-19T12:12:43;97633.53;;;19.20;92.05
72525;BME280;60547;48.502;8.996;2022-08-19T12:15:11;97649.97;;;19.21;92.11
72525;BME280;60547;48.502;8.996;2022-08-19T12:17:37;97644.00;;;19.14;92.43
72525;BME280;60547;48.502;8.996;2022-08-19T12:20:04;97648.66;;;19.17;92.24
72525;BME280;60547;48.502;8.996;2022-08-19T12:22:30;97650.19;;;19.18;91.97
72525;BME280;60547;48.502;8.996;2022-08-19T12:24:55;97644.28;;;19.16;92.12
72525;BME280;60547;48.502;8.996;2022-08-19T12:27:21;97643.50;;;19.15;91.77
72525;BME280;60547;48.502;8.996;2022-08-19T12:29:46;97636.91;;;19.24;92.23
72525;BME280;60547;48.502;8.996;2022-08-19T12:32:12;97644.88;;;19.25;92.53
72525;BME280;60547;48.502;8.996;2022-08-19T12:34:38;97640.00;;;19.26;92.29
72525;BME280;60547;48.502;8.996;2022-08-19T12:37:05;97644.38;;;19.27;92.79
72525;BME280;60547;48.502;8.996;2022-08-19T12:39:36;97658.00;;;19.34;92.70
72525;BME280;60547;48.502;8.996;2022-08-19T12:42:02;97646.97;;;19.30;92.10
72525;BME280;60547;48.502;8.996;2022-08-19T12:44:28;97656.19;;;19.31;91.25
72525;BME280;60547;48.502;8.996;2022-08-19T12:46:54;97649.00;;;19.30;90.84
72525;BME280;60547;48.502;8.996;2022-08-19T12:49:19;97648.75;;;19.28;90.86
72525;BME280;60547;48.502;8.996;2022-08-19T12:51:45;97652.38;;;19.34;91.22
72525;BME280;60547;48.502;8.996;2022-08-19T12:54:11;97640.06;;;19.37;91.06
72525;BME280;60547;48.502;8.996;2022-08-19T12:56:37;97643.44;;;19.41;91.46
72525;BME280;60547;48.502;8.996;2022-08-19T12:59:03;97641.44;;;19.47;90.08
72525;BME280;60547;48.502;8.996;2022-08-19T13:01:29;97643.47;;;19.47;90.53
72525;BME280;60547;48.502;8.996;2022-08-19T13:03:58;97644.78;;;19.51;90.25
72525;BME280;60547;48.502;8.996;2022-08-19T13:06:25;97641.97;;;19.51;90.20
72525;BME280;60547;48.502;8.996;2022-08-19T13:08:51;97638.88;;;19.49;88.83